Moonbeam, Canada
Current Conditions -  °F | °C
As of 11:00 AM on Saturday 22 Nov 2014 (Local Time) from CYYU Reporting Station
Blowing Snow Blowing Snow  
Wind Chill: 23°   Ceiling: 2000
Heat Index: 32°   Visibility: 4mi
Dew Point: 30°   Wind: 12mph
Humidity: 93%   Direction: 240°WSW
Pressure: 29.55"   Gusts: 18mph
Location:  49.34°N, 82.15°W
Report Text: CYYU 221600Z 24010G16KT 4SM DRSN BR OVC020 00/M01 A2955 RMK SC8 SLP021
Loading
Personal Weather Stations






























Interactive Weather Map New forecast layout! Learn more

10-Day Weather Forecast

Advertisements
Track Severe Weather on mobile